createdAt,value
2023-03-28T00:01:32.975Z,68.37
2023-03-28T00:04:03.543Z,68.52
2023-03-28T00:06:35.150Z,68.67
2023-03-28T00:09:08.601Z,68.97
2023-03-28T00:11:38.752Z,69.03
2023-03-28T00:14:09.512Z,69.18
2023-03-28T00:16:47.477Z,69.45
2023-03-28T00:19:18.172Z,69.57
2023-03-28T00:21:48.888Z,69.92
2023-03-28T00:24:23.525Z,70.08
2023-03-28T00:26:55.009Z,69.91
2023-03-28T00:29:26.549Z,69.97
2023-03-28T00:31:58.382Z,69.98
2023-03-28T00:34:29.110Z,69.98
2023-03-28T00:36:58.808Z,69.99
2023-03-28T00:39:27.995Z,70.36
2023-03-28T00:42:02.131Z,70.39
2023-03-28T00:44:51.287Z,70.20
2023-03-28T00:47:42.005Z,70.41
2023-03-28T00:53:57.444Z,71.10
2023-03-28T00:56:26.554Z,71.05
2023-03-28T00:58:53.852Z,71.05
2023-03-28T01:01:21.455Z,71.72
2023-03-28T01:03:55.810Z,71.88
2023-03-28T01:06:25.238Z,71.97
2023-03-28T01:08:56.554Z,72.12
2023-03-28T01:11:24.364Z,72.36
2023-03-28T01:13:53.007Z,72.31
2023-03-28T01:16:22.831Z,72.44
2023-03-28T01:18:53.144Z,72.46
2023-03-28T01:21:28.414Z,72.66
2023-03-28T01:24:17.882Z,72.67
2023-03-28T01:27:06.692Z,73.00
2023-03-28T01:29:49.138Z,72.88
2023-03-28T01:32:39.102Z,73.25
2023-03-28T01:35:33.340Z,73.51
2023-03-28T01:38:10.510Z,73.81
2023-03-28T01:40:55.522Z,73.73
2023-03-28T01:43:28.258Z,73.98
2023-03-28T01:46:08.510Z,74.00
2023-03-28T01:48:47.090Z,74.15
2023-03-28T01:51:23.250Z,74.46
2023-03-28T01:54:12.147Z,74.87
2023-03-28T01:57:09.969Z,75.28
2023-03-28T02:00:13.212Z,75.79
2023-03-28T02:03:02.367Z,76.07
2023-03-28T02:05:35.712Z,76.29
2023-03-28T02:08:04.974Z,76.52
2023-03-28T02:10:55.511Z,77.05
2023-03-28T02:14:09.305Z,77.57
2023-03-28T02:16:43.463Z,77.96
2023-03-28T02:19:29.398Z,78.35
2023-03-28T02:22:25.469Z,78.55
2023-03-28T02:24:58.798Z,78.84
2023-03-28T02:27:47.104Z,79.16
2023-03-28T02:30:38.116Z,79.39
2023-03-28T02:33:39.780Z,79.66
2023-03-28T02:36:29.398Z,80.19
2023-03-28T02:38:59.234Z,80.68
2023-03-28T02:41:34.787Z,80.69
2023-03-28T02:44:16.878Z,80.38
2023-03-28T02:47:22.979Z,80.48
2023-03-28T02:50:04.957Z,80.61
2023-03-28T02:52:50.128Z,80.55
2023-03-28T02:55:47.297Z,80.50
2023-03-28T02:58:46.025Z,80.64
2023-03-28T03:01:14.272Z,80.66
2023-03-28T03:03:43.489Z,80.56
2023-03-28T03:06:12.072Z,80.31
2023-03-28T03:08:44.121Z,80.30
2023-03-28T03:11:13.670Z,80.27
2023-03-28T03:13:44.338Z,80.07
2023-03-28T03:16:19.353Z,80.17
2023-03-28T03:18:47.333Z,80.10
2023-03-28T03:21:14.466Z,80.16
2023-03-28T03:23:43.799Z,80.46
2023-03-28T03:26:11.764Z,80.35
2023-03-28T03:28:47.252Z,80.40
2023-03-28T03:31:14.746Z,80.65
2023-03-28T03:34:05.561Z,80.52
2023-03-28T03:36:38.293Z,80.52
2023-03-28T03:39:07.153Z,80.71
2023-03-28T03:41:34.660Z,80.59
2023-03-28T03:44:01.869Z,80.80
2023-03-28T03:46:31.380Z,80.72
2023-03-28T03:49:02.409Z,80.70
2023-03-28T03:51:29.751Z,80.53
2023-03-28T03:53:58.140Z,80.61
2023-03-28T03:56:42.786Z,80.77
2023-03-28T03:59:11.161Z,80.52
2023-03-28T04:01:43.606Z,80.63
2023-03-28T04:04:25.123Z,80.49
2023-03-28T04:07:16.162Z,80.15
2023-03-28T04:09:46.568Z,79.89
2023-03-28T04:12:15.338Z,79.69
2023-03-28T04:14:48.441Z,79.35
2023-03-28T04:17:40.764Z,79.37
2023-03-28T04:20:13.404Z,79.14
2023-03-28T04:23:18.084Z,79.24
2023-03-28T04:25:49.486Z,79.30
2023-03-28T04:28:25.382Z,79.14
2023-03-28T04:30:59.915Z,79.20
2023-03-28T04:33:33.371Z,79.34
2023-03-28T04:36:09.054Z,79.35
2023-03-28T04:38:45.325Z,79.28
2023-03-28T04:41:39.748Z,79.29
2023-03-28T04:44:09.919Z,79.49
2023-03-28T04:46:46.028Z,79.60
2023-03-28T04:49:17.221Z,79.51
2023-03-28T04:51:50.935Z,79.40
2023-03-28T04:54:19.730Z,79.49
2023-03-28T04:56:49.846Z,79.28
2023-03-28T04:59:36.368Z,79.00
2023-03-28T05:02:05.405Z,78.91
2023-03-28T05:04:53.934Z,78.77
2023-03-28T05:07:22.236Z,78.65
2023-03-28T05:09:49.965Z,78.27
2023-03-28T05:12:20.874Z,77.80
2023-03-28T05:14:58.174Z,77.64
2023-03-28T05:17:29.161Z,77.90
2023-03-28T05:20:10.652Z,77.90
2023-03-28T05:22:59.454Z,77.99
2023-03-28T05:25:29.937Z,78.02
2023-03-28T05:28:01.384Z,78.13
2023-03-28T05:30:30.753Z,78.67
2023-03-28T05:33:00.130Z,78.66
2023-03-28T05:35:30.913Z,78.45
2023-03-28T05:37:58.037Z,78.41
2023-03-28T05:40:26.037Z,78.25
2023-03-28T05:42:54.832Z,78.24
2023-03-28T05:45:27.753Z,78.01
2023-03-28T05:48:12.405Z,77.95
2023-03-28T05:50:50.554Z,77.96
2023-03-28T05:53:18.312Z,77.73
2023-03-28T05:55:48.914Z,77.69
2023-03-28T05:58:21.365Z,77.20
2023-03-28T06:00:51.010Z,76.92
2023-03-28T06:03:25.353Z,76.93
2023-03-28T06:05:55.049Z,76.95
2023-03-28T06:08:27.895Z,76.43
2023-03-28T06:10:59.912Z,76.43
2023-03-28T06:13:30.792Z,75.82
2023-03-28T06:15:58.911Z,75.88
2023-03-28T06:18:41.564Z,75.96
2023-03-28T06:21:11.609Z,75.55
2023-03-28T06:23:43.484Z,75.44
2023-03-28T06:26:20.314Z,75.39
2023-03-28T06:28:49.546Z,74.90
2023-03-28T06:31:22.668Z,74.93
2023-03-28T06:33:55.420Z,74.75
2023-03-28T06:36:22.700Z,74.46
2023-03-28T06:38:51.780Z,74.44
2023-03-28T06:41:21.712Z,74.28
2023-03-28T06:43:50.118Z,74.01
2023-03-28T06:46:58.601Z,74.00
2023-03-28T06:49:26.998Z,73.91
2023-03-28T06:52:02.059Z,73.75
2023-03-28T06:54:31.192Z,73.62
2023-03-28T06:56:58.828Z,72.85
2023-03-28T06:59:27.446Z,72.35
2023-03-28T07:01:59.899Z,72.01
2023-03-28T07:04:40.442Z,71.27
2023-03-28T07:07:11.229Z,70.19
2023-03-28T07:09:42.253Z,68.72
2023-03-28T07:12:13.511Z,67.29
2023-03-28T07:14:44.488Z,66.19
2023-03-28T07:17:14.148Z,65.05
2023-03-28T07:19:46.609Z,64.30
2023-03-28T07:22:15.581Z,64.52
2023-03-28T07:24:42.669Z,64.38
2023-03-28T07:27:25.027Z,63.66
2023-03-28T07:29:54.847Z,62.90
2023-03-28T07:32:33.233Z,61.99
2023-03-28T07:35:08.160Z,61.74
2023-03-28T07:37:40.541Z,61.48
2023-03-28T07:40:30.720Z,62.08
2023-03-28T07:42:58.814Z,61.91
2023-03-28T07:45:31.750Z,62.11
2023-03-28T07:47:59.203Z,62.54
2023-03-28T07:50:26.733Z,62.81
2023-03-28T07:53:00.532Z,62.48
2023-03-28T07:55:37.218Z,62.38
2023-03-28T07:58:16.502Z,62.95
2023-03-28T08:00:46.805Z,63.26
2023-03-28T08:03:38.754Z,63.98
2023-03-28T08:06:28.479Z,64.28
2023-03-28T08:08:58.631Z,64.71
2023-03-28T08:11:37.695Z,65.12
2023-03-28T08:14:06.167Z,65.09
2023-03-28T08:16:34.148Z,64.92
2023-03-28T08:19:10.846Z,65.45
2023-03-28T08:22:02.055Z,65.61
2023-03-28T08:24:36.091Z,66.01
2023-03-28T08:27:20.594Z,66.10
2023-03-28T08:29:52.795Z,66.52
2023-03-28T08:32:31.296Z,66.53
2023-03-28T08:35:02.322Z,66.75
2023-03-28T08:37:31.189Z,66.69
2023-03-28T08:40:00.322Z,66.36
2023-03-28T08:43:12.436Z,65.86
2023-03-28T08:45:43.414Z,65.60
2023-03-28T08:48:37.534Z,67.37
2023-03-28T08:51:18.120Z,70.20
2023-03-28T08:53:53.519Z,72.91
2023-03-28T08:56:21.408Z,74.79
2023-03-28T08:59:33.252Z,76.42
2023-03-28T09:02:00.815Z,78.03
2023-03-28T09:04:34.570Z,78.49
2023-03-28T09:07:38.778Z,79.71
2023-03-28T09:10:28.590Z,81.99
2023-03-28T09:13:33.900Z,84.90
2023-03-28T09:16:23.342Z,86.07
2023-03-28T09:22:47.969Z,89.68
2023-03-28T09:26:03.428Z,91.16
2023-03-28T09:29:02.368Z,91.69
2023-03-28T09:31:35.633Z,91.86
2023-03-28T09:34:16.119Z,91.38
2023-03-28T09:36:50.546Z,91.28
2023-03-28T09:39:53.310Z,91.69
2023-03-28T09:42:48.300Z,92.04
2023-03-28T09:46:12.676Z,92.54
2023-03-28T09:49:00.061Z,92.43
2023-03-28T09:51:44.426Z,93.20
2023-03-28T09:54:20.292Z,93.88
2023-03-28T09:56:52.099Z,94.85
2023-03-28T09:59:38.635Z,95.78
2023-03-28T10:02:31.818Z,96.92
2023-03-28T10:05:05.543Z,97.15
2023-03-28T10:07:44.504Z,97.10
2023-03-28T10:10:24.622Z,96.74
2023-03-28T10:13:03.448Z,97.19
2023-03-28T10:15:42.951Z,97.32
2023-03-28T10:18:35.433Z,98.31
2023-03-28T10:21:17.872Z,99.49
2023-03-28T10:24:04.913Z,99.86
2023-03-28T10:26:34.114Z,99.92
2023-03-28T10:29:06.208Z,99.67
2023-03-28T10:31:41.707Z,99.53
2023-03-28T10:34:30.618Z,99.53
2023-03-28T10:37:25.687Z,99.91
2023-03-28T10:40:21.039Z,98.90
2023-03-28T10:43:13.969Z,97.38
2023-03-28T10:46:21.319Z,97.43
2023-03-28T10:49:14.229Z,98.08
2023-03-28T10:51:48.427Z,98.44
2023-03-28T10:54:24.090Z,98.29
2023-03-28T10:57:01.990Z,99.04
2023-03-28T11:00:06.867Z,99.27
2023-03-28T11:03:22.183Z,99.60
2023-03-28T11:06:32.949Z,100.00
2023-03-28T11:09:38.884Z,100.00
2023-03-28T11:12:51.163Z,100.00
2023-03-28T11:15:31.904Z,100.00
2023-03-28T11:18:50.087Z,100.00
2023-03-28T11:21:42.851Z,100.00
2023-03-28T11:24:25.600Z,100.00
2023-03-28T11:27:39.327Z,100.00
2023-03-28T11:30:29.917Z,100.00
2023-03-28T11:34:02.487Z,100.00
2023-03-28T11:36:58.276Z,100.00
2023-03-28T11:39:48.101Z,100.00
2023-03-28T11:42:31.146Z,100.00
2023-03-28T11:45:15.939Z,100.00
2023-03-28T11:47:46.901Z,100.00
2023-03-28T11:50:51.076Z,100.00
2023-03-28T11:53:49.996Z,100.00
2023-03-28T11:56:29.402Z,100.00
2023-03-28T11:59:11.818Z,100.00
2023-03-28T12:01:43.722Z,100.00
2023-03-28T12:04:19.236Z,100.00
2023-03-28T12:07:08.609Z,100.00
2023-03-28T12:10:19.088Z,100.00
2023-03-28T12:13:06.385Z,100.00
2023-03-28T12:16:07.184Z,100.00
2023-03-28T12:18:55.137Z,100.00
2023-03-28T12:21:41.171Z,100.00
2023-03-28T12:24:26.315Z,100.00
2023-03-28T12:27:27.695Z,100.00
2023-03-28T12:33:00.962Z,100.00
2023-03-28T12:35:56.905Z,100.00
2023-03-28T12:38:39.702Z,100.00
2023-03-28T12:41:32.113Z,100.00
2023-03-28T12:44:11.687Z,100.00
2023-03-28T12:47:41.112Z,100.00
2023-03-28T12:50:47.928Z,100.00
2023-03-28T12:58:22.760Z,100.00
2023-03-28T13:06:19.178Z,100.00
2023-03-28T13:09:43.410Z,100.00
2023-03-28T13:12:31.324Z,100.00
2023-03-28T13:15:42.533Z,100.00
2023-03-28T13:18:21.594Z,100.00
2023-03-28T13:20:51.788Z,100.00
2023-03-28T13:23:44.298Z,100.00
2023-03-28T13:26:16.221Z,100.00
2023-03-28T13:28:51.303Z,100.00
2023-03-28T13:31:41.133Z,100.00
2023-03-28T13:34:23.026Z,100.00
2023-03-28T13:36:54.843Z,100.00
2023-03-28T13:40:14.250Z,100.00
2023-03-28T13:43:02.070Z,100.00
2023-03-28T13:45:35.352Z,100.00
2023-03-28T13:48:13.075Z,100.00
2023-03-28T13:50:41.637Z,100.00
2023-03-28T13:53:12.291Z,100.00
2023-03-28T13:55:43.628Z,100.00
2023-03-28T13:58:19.130Z,100.00
2023-03-28T14:00:48.661Z,100.00
2023-03-28T14:03:18.314Z,100.00
2023-03-28T14:05:47.761Z,100.00
2023-03-28T14:08:22.084Z,100.00
2023-03-28T14:10:52.699Z,100.00
2023-03-28T14:13:26.375Z,100.00
2023-03-28T14:15:55.592Z,100.00
2023-03-28T14:18:47.708Z,100.00
2023-03-28T14:21:17.524Z,100.00
2023-03-28T14:23:58.372Z,100.00
2023-03-28T14:26:39.341Z,100.00
2023-03-28T14:29:17.348Z,100.00
2023-03-28T14:31:58.333Z,100.00
2023-03-28T14:34:30.481Z,100.00
2023-03-28T14:37:11.979Z,100.00
2023-03-28T14:39:55.126Z,100.00
2023-03-28T14:42:32.177Z,100.00
2023-03-28T14:45:02.237Z,100.00
2023-03-28T14:50:17.489Z,99.36
2023-03-28T14:52:49.761Z,98.58
2023-03-28T14:55:28.322Z,97.75
2023-03-28T14:57:58.301Z,96.84
2023-03-28T15:00:43.132Z,96.16
2023-03-28T15:03:46.844Z,95.74
2023-03-28T15:06:17.348Z,95.07
2023-03-28T15:08:46.815Z,94.87
2023-03-28T15:11:35.856Z,94.84
2023-03-28T15:14:38.228Z,94.71
2023-03-28T15:17:07.386Z,94.11
2023-03-28T15:19:39.780Z,93.68
2023-03-28T15:22:10.295Z,93.91
2023-03-28T15:24:46.325Z,93.96
2023-03-28T15:27:46.813Z,94.06
2023-03-28T15:30:19.792Z,93.39
2023-03-28T15:32:53.856Z,93.11
2023-03-28T15:44:05.595Z,92.98
2023-03-28T15:46:38.069Z,92.49
2023-03-28T15:49:08.295Z,92.80
2023-03-28T15:52:05.210Z,93.17
2023-03-28T15:54:35.972Z,93.04
2023-03-28T15:57:04.538Z,92.94
2023-03-28T15:59:45.196Z,92.95
2023-03-28T16:02:25.940Z,92.92
2023-03-28T16:07:57.515Z,93.22
2023-03-28T16:10:26.305Z,93.33
2023-03-28T16:13:14.816Z,93.09
2023-03-28T16:16:07.483Z,93.17
2023-03-28T16:19:01.206Z,92.88
2023-03-28T16:21:42.392Z,93.05
2023-03-28T16:24:13.834Z,92.98
2023-03-28T16:26:46.587Z,92.95
2023-03-28T16:29:14.707Z,92.77
2023-03-28T16:31:48.585Z,93.17
2023-03-28T16:34:20.809Z,93.23
2023-03-28T16:36:57.864Z,93.24
2023-03-28T16:39:28.190Z,93.33
2023-03-28T16:41:56.511Z,93.40
2023-03-28T16:44:28.585Z,93.27
2023-03-28T16:47:05.294Z,93.13
2023-03-28T16:49:32.682Z,93.02
2023-03-28T16:52:01.660Z,93.22
2023-03-28T16:54:30.745Z,93.19
2023-03-28T16:57:00.137Z,93.17
2023-03-28T16:59:33.731Z,93.51
2023-03-28T17:02:03.867Z,93.47
2023-03-28T17:04:33.671Z,93.53
2023-03-28T17:07:02.833Z,93.38
2023-03-28T17:09:35.285Z,93.59
2023-03-28T17:12:03.856Z,93.66
2023-03-28T17:14:42.952Z,93.62
2023-03-28T17:17:11.937Z,93.57
2023-03-28T17:19:43.890Z,94.08
2023-03-28T17:22:15.379Z,93.83
2023-03-28T17:24:46.165Z,93.91
2023-03-28T17:27:15.590Z,94.20
2023-03-28T17:29:44.152Z,94.24
2023-03-28T17:32:11.992Z,94.30
2023-03-28T17:34:41.468Z,94.27
2023-03-28T17:37:15.798Z,94.48
2023-03-28T17:39:47.246Z,94.35
2023-03-28T17:42:18.050Z,94.52
2023-03-28T17:44:50.255Z,94.73
2023-03-28T17:47:26.661Z,94.90
2023-03-28T17:49:59.979Z,95.12
2023-03-28T17:52:32.596Z,95.38
2023-03-28T17:55:06.548Z,95.16
2023-03-28T17:57:40.157Z,95.31
2023-03-28T18:00:11.745Z,95.19
2023-03-28T18:02:50.929Z,95.50
2023-03-28T18:05:40.723Z,95.78
2023-03-28T18:08:14.398Z,96.09
2023-03-28T18:10:59.574Z,96.39
2023-03-28T18:13:50.639Z,96.47
2023-03-28T18:19:46.739Z,96.43
2023-03-28T18:22:18.521Z,96.74
2023-03-28T18:24:51.222Z,97.22
2023-03-28T18:27:26.115Z,97.75
2023-03-28T18:30:05.462Z,97.76
2023-03-28T18:32:40.675Z,97.78
2023-03-28T18:35:13.775Z,97.59
2023-03-28T18:37:57.126Z,97.82
2023-03-28T18:40:30.525Z,98.08
2023-03-28T18:42:59.806Z,98.11
2023-03-28T18:45:29.623Z,97.99
2023-03-28T18:47:58.401Z,97.76
2023-03-28T18:50:29.353Z,97.80
2023-03-28T18:52:58.482Z,97.53
2023-03-28T18:55:30.309Z,97.33
2023-03-28T18:58:00.318Z,97.42
2023-03-28T19:00:30.044Z,97.17
2023-03-28T19:03:19.441Z,97.01
2023-03-28T19:05:47.766Z,96.52
2023-03-28T19:08:15.384Z,96.38
2023-03-28T19:10:55.453Z,96.33
2023-03-28T19:13:25.010Z,96.08
2023-03-28T19:16:03.834Z,95.81
2023-03-28T19:18:52.795Z,95.75
2023-03-28T19:21:25.739Z,95.54
2023-03-28T19:23:57.166Z,95.42
2023-03-28T19:26:28.786Z,95.32
2023-03-28T19:29:01.578Z,95.15
2023-03-28T19:31:42.024Z,95.03
2023-03-28T19:34:45.603Z,95.00
2023-03-28T19:37:18.414Z,94.81
2023-03-28T19:39:58.117Z,94.83
2023-03-28T19:42:25.468Z,94.66
2023-03-28T19:45:01.541Z,94.60
2023-03-28T19:47:41.385Z,94.55
2023-03-28T19:50:11.153Z,94.22
2023-03-28T19:52:42.500Z,94.07
2023-03-28T19:55:20.635Z,93.66
2023-03-28T19:57:49.472Z,93.43
2023-03-28T20:00:20.834Z,93.54
2023-03-28T20:02:52.381Z,93.32
2023-03-28T20:05:22.484Z,93.07
2023-03-28T20:07:52.657Z,92.68
2023-03-28T20:10:23.287Z,92.50
2023-03-28T20:12:50.923Z,92.39
2023-03-28T20:15:22.437Z,92.24
2023-03-28T20:17:57.582Z,91.93
2023-03-28T20:20:28.080Z,91.86
2023-03-28T20:23:09.591Z,91.50
2023-03-28T20:25:42.412Z,91.19
2023-03-28T20:28:12.603Z,91.20
2023-03-28T20:30:44.252Z,91.07
2023-03-28T20:33:16.408Z,91.16
2023-03-28T20:36:02.440Z,91.24
2023-03-28T20:38:32.239Z,90.75
2023-03-28T20:41:02.607Z,90.59
2023-03-28T20:43:40.098Z,90.45
2023-03-28T20:46:13.154Z,90.27
2023-03-28T20:48:46.788Z,89.86
2023-03-28T20:51:18.763Z,89.77
2023-03-28T20:53:55.947Z,89.90
2023-03-28T20:56:28.670Z,89.77
2023-03-28T20:58:58.815Z,89.55
2023-03-28T21:01:32.235Z,89.27
2023-03-28T21:04:06.887Z,89.63
2023-03-28T21:06:46.000Z,89.34
2023-03-28T21:09:18.076Z,89.24
2023-03-28T21:11:45.777Z,89.22
2023-03-28T21:14:16.609Z,88.92
2023-03-28T21:16:44.775Z,89.13
2023-03-28T21:19:13.870Z,89.15
2023-03-28T21:21:46.666Z,89.39
2023-03-28T21:24:15.237Z,89.33
2023-03-28T21:26:42.414Z,89.27
2023-03-28T21:29:10.398Z,89.07
2023-03-28T21:31:38.063Z,88.62
2023-03-28T21:34:09.148Z,87.88
2023-03-28T21:36:37.236Z,87.56
2023-03-28T21:39:05.793Z,87.35
2023-03-28T21:41:42.426Z,87.24
2023-03-28T21:44:12.875Z,87.10
2023-03-28T21:46:40.614Z,86.99
2023-03-28T21:49:11.264Z,86.98
2023-03-28T21:51:38.337Z,86.92
2023-03-28T21:54:10.261Z,86.74
2023-03-28T21:56:38.674Z,86.58
2023-03-28T21:59:08.957Z,86.27
2023-03-28T22:01:39.781Z,86.15
2023-03-28T22:04:07.266Z,85.87
2023-03-28T22:06:35.854Z,85.77
2023-03-28T22:09:04.528Z,85.65
2023-03-28T22:11:34.509Z,85.61
2023-03-28T22:14:04.450Z,85.61
2023-03-28T22:16:42.100Z,85.63
2023-03-28T22:19:09.268Z,85.50
2023-03-28T22:21:36.459Z,85.58
2023-03-28T22:24:13.148Z,85.56
2023-03-28T22:26:44.454Z,85.31
2023-03-28T22:29:12.865Z,85.28
2023-03-28T22:31:41.406Z,85.06
2023-03-28T22:34:10.551Z,85.03
2023-03-28T22:36:38.597Z,84.89
2023-03-28T22:39:17.162Z,85.00
2023-03-28T22:41:45.767Z,84.89
2023-03-28T22:44:14.405Z,84.65
2023-03-28T22:46:43.920Z,84.36
2023-03-28T22:49:13.052Z,84.51
2023-03-28T22:51:45.584Z,84.38
2023-03-28T22:54:26.649Z,84.14
2023-03-28T22:56:55.491Z,83.98
2023-03-28T22:59:23.979Z,83.81
2023-03-28T23:01:51.273Z,83.89
2023-03-28T23:04:18.894Z,83.66
2023-03-28T23:06:50.062Z,83.65
2023-03-28T23:09:18.681Z,83.83
2023-03-28T23:11:56.403Z,83.59
2023-03-28T23:14:25.663Z,83.30
2023-03-28T23:16:52.590Z,83.36
2023-03-28T23:19:30.725Z,83.63
2023-03-28T23:21:59.484Z,83.59
2023-03-28T23:24:27.212Z,83.77
2023-03-28T23:26:55.147Z,83.81
2023-03-28T23:29:23.585Z,83.73
2023-03-28T23:31:51.460Z,83.71
2023-03-28T23:34:18.672Z,83.54
2023-03-28T23:36:46.637Z,83.28
2023-03-28T23:39:13.989Z,82.91
2023-03-28T23:41:41.343Z,82.97
2023-03-28T23:44:09.126Z,83.04
2023-03-28T23:46:36.448Z,82.78
2023-03-28T23:49:05.453Z,82.27
2023-03-28T23:51:32.839Z,82.04
2023-03-28T23:54:01.460Z,81.95
2023-03-28T23:56:31.066Z,81.98
2023-03-28T23:58:58.866Z,81.82
